createdAt,value
2022-07-28T00:11:36.956Z,4.75
2022-07-28T00:15:54.548Z,4.03
2022-07-28T00:19:57.914Z,4.32
2022-07-28T00:24:01.029Z,4.72
2022-07-28T00:28:04.237Z,4.55
2022-07-28T00:32:07.218Z,4.75
2022-07-28T00:36:11.733Z,4.47
2022-07-28T00:40:14.935Z,4.60
2022-07-28T00:44:17.906Z,4.95
2022-07-28T00:48:20.758Z,4.63
2022-07-28T00:52:24.412Z,4.30
2022-07-28T00:56:27.450Z,4.60
2022-07-28T01:00:30.469Z,4.63
2022-07-28T01:04:33.651Z,4.57
2022-07-28T01:09:04.493Z,4.40
2022-07-28T01:13:07.846Z,4.43
2022-07-28T01:17:13.942Z,4.47
2022-07-28T01:21:25.634Z,4.72
2022-07-28T01:25:54.345Z,4.70
2022-07-28T01:30:00.302Z,4.28
2022-07-28T01:34:09.655Z,4.70
2022-07-28T01:38:15.071Z,4.90
2022-07-28T01:42:21.250Z,4.90
2022-07-28T01:46:26.160Z,5.20
2022-07-28T01:50:30.592Z,4.65
2022-07-28T01:54:37.491Z,5.10
2022-07-28T01:58:43.364Z,5.20
2022-07-28T02:02:49.291Z,5.30
2022-07-28T02:06:54.051Z,4.67
2022-07-28T02:11:18.491Z,5.20
2022-07-28T02:15:22.762Z,4.68
2022-07-28T02:19:26.702Z,5.00
2022-07-28T02:23:30.033Z,5.28
2022-07-28T02:28:07.552Z,4.93
2022-07-28T02:32:42.874Z,5.00
2022-07-28T02:36:55.188Z,5.40
2022-07-28T02:41:03.729Z,5.00
2022-07-28T02:45:11.729Z,4.85
2022-07-28T02:49:25.537Z,4.88
2022-07-28T02:57:46.967Z,5.13
2022-07-28T03:01:51.859Z,4.57
2022-07-28T03:05:54.869Z,5.05
2022-07-28T03:09:59.002Z,5.45
2022-07-28T03:14:01.974Z,4.88
2022-07-28T03:18:06.168Z,5.72
2022-07-28T03:22:10.464Z,5.20
2022-07-28T03:26:23.945Z,5.13
2022-07-28T03:30:35.057Z,5.32
2022-07-28T03:34:38.249Z,4.80
2022-07-28T03:38:56.157Z,5.93
2022-07-28T03:43:03.462Z,5.80
2022-07-28T03:47:08.615Z,5.43
2022-07-28T03:51:11.513Z,5.20
2022-07-28T03:55:16.323Z,5.25
2022-07-28T03:59:20.456Z,5.60
2022-07-28T04:03:42.479Z,5.25
2022-07-28T04:07:46.634Z,4.93
2022-07-28T04:11:49.553Z,4.80
2022-07-28T04:15:52.756Z,5.07
2022-07-28T04:19:55.795Z,4.93
2022-07-28T04:24:01.990Z,4.90
2022-07-28T04:28:05.562Z,5.15
2022-07-28T04:32:08.958Z,4.72
2022-07-28T04:36:11.953Z,5.55
2022-07-28T04:40:15.300Z,5.55
2022-07-28T04:44:18.370Z,5.43
2022-07-28T04:48:21.930Z,5.30
2022-07-28T04:52:25.812Z,5.10
2022-07-28T04:56:28.692Z,5.50
2022-07-28T05:00:32.087Z,5.30
2022-07-28T05:04:35.584Z,5.68
2022-07-28T05:08:41.242Z,5.05
2022-07-28T05:12:45.412Z,5.18
2022-07-28T05:16:48.161Z,5.68
2022-07-28T05:20:50.976Z,6.25
2022-07-28T05:24:54.861Z,5.03
2022-07-28T05:28:57.891Z,5.18
2022-07-28T05:33:01.956Z,6.20
2022-07-28T05:37:05.001Z,5.80
2022-07-28T05:41:07.855Z,5.03
2022-07-28T05:45:14.987Z,6.55
2022-07-28T05:49:20.785Z,5.88
2022-07-28T05:53:24.079Z,5.38
2022-07-28T05:57:27.659Z,5.70
2022-07-28T06:01:36.908Z,5.55
2022-07-28T06:05:59.189Z,5.13
2022-07-28T06:10:02.748Z,4.97
2022-07-28T06:14:07.457Z,4.70
2022-07-28T06:18:10.157Z,4.82
2022-07-28T06:22:15.389Z,4.88
2022-07-28T06:26:18.158Z,4.53
2022-07-28T06:30:21.243Z,5.28
2022-07-28T06:34:24.337Z,4.50
2022-07-28T06:38:27.076Z,4.55
2022-07-28T06:42:30.098Z,5.47
2022-07-28T06:46:32.838Z,4.65
2022-07-28T06:50:39.311Z,4.38
2022-07-28T06:54:42.157Z,4.68
2022-07-28T06:58:51.472Z,4.82
2022-07-28T07:02:54.558Z,4.53
2022-07-28T07:06:57.298Z,4.00
2022-07-28T07:11:00.405Z,4.47
2022-07-28T07:15:05.559Z,4.18
2022-07-28T07:19:12.606Z,4.03
2022-07-28T07:23:18.269Z,4.30
2022-07-28T07:27:21.119Z,3.97
2022-07-28T07:31:23.932Z,4.20
2022-07-28T07:35:26.828Z,4.15
2022-07-28T07:39:31.392Z,4.10
2022-07-28T07:43:34.397Z,4.50
2022-07-28T07:47:37.315Z,3.80
2022-07-28T07:51:40.104Z,4.10
2022-07-28T07:55:42.983Z,4.18
2022-07-28T07:59:46.190Z,3.80
2022-07-28T08:03:50.308Z,3.88
2022-07-28T08:07:53.329Z,3.70
2022-07-28T08:11:56.050Z,4.45
2022-07-28T08:15:59.869Z,4.07
2022-07-28T08:20:04.226Z,4.20
2022-07-28T08:24:07.463Z,4.28
2022-07-28T08:28:10.472Z,3.80
2022-07-28T08:32:14.193Z,4.05
2022-07-28T08:36:17.100Z,4.13
2022-07-28T08:40:22.480Z,3.42
2022-07-28T08:44:33.520Z,3.40
2022-07-28T08:48:38.986Z,3.45
2022-07-28T08:52:45.573Z,3.73
2022-07-28T08:56:49.582Z,3.63
2022-07-28T09:00:52.610Z,3.72
2022-07-28T09:04:56.255Z,3.55
2022-07-28T09:08:59.084Z,3.35
2022-07-28T09:13:01.841Z,4.00
2022-07-28T09:17:05.409Z,3.80
2022-07-28T09:21:09.295Z,3.65
2022-07-28T09:25:19.198Z,3.25
2022-07-28T09:29:25.332Z,3.40
2022-07-28T09:33:42.451Z,3.95
2022-07-28T09:37:58.803Z,4.40
2022-07-28T09:42:02.642Z,3.50
2022-07-28T09:46:06.859Z,3.50
2022-07-28T09:50:21.543Z,4.07
2022-07-28T09:54:24.529Z,3.50
2022-07-28T09:58:29.625Z,3.17
2022-07-28T10:02:33.603Z,3.45
2022-07-28T10:06:40.718Z,3.40
2022-07-28T10:10:59.084Z,3.38
2022-07-28T10:15:38.363Z,3.22
2022-07-28T10:19:55.204Z,3.67
2022-07-28T10:24:07.006Z,3.63
2022-07-28T10:28:11.300Z,4.05
2022-07-28T10:32:14.172Z,3.67
2022-07-28T10:36:22.674Z,3.22
2022-07-28T10:40:42.709Z,3.30
2022-07-28T10:44:47.175Z,3.08
2022-07-28T10:48:50.277Z,3.20
2022-07-28T10:52:58.987Z,2.95
2022-07-28T10:57:06.405Z,3.28
2022-07-28T11:01:17.020Z,3.47
2022-07-28T11:05:41.737Z,3.17
2022-07-28T11:09:50.440Z,3.43
2022-07-28T11:13:53.338Z,3.33
2022-07-28T11:18:10.285Z,2.65
2022-07-28T11:22:16.345Z,3.10
2022-07-28T11:26:23.594Z,3.50
2022-07-28T11:30:28.780Z,3.47
2022-07-28T11:35:08.746Z,3.22
2022-07-28T11:39:28.945Z,3.22
2022-07-28T11:43:38.632Z,3.30
2022-07-28T11:47:42.502Z,3.25
2022-07-28T11:52:12.117Z,3.17
2022-07-28T11:56:37.341Z,3.20
2022-07-28T12:00:40.124Z,3.10
2022-07-28T12:04:43.143Z,3.00
2022-07-28T12:08:57.192Z,3.60
2022-07-28T12:13:05.386Z,3.28
2022-07-28T12:17:08.344Z,3.38
2022-07-28T12:21:11.196Z,3.15
2022-07-28T12:25:15.521Z,3.03
2022-07-28T12:29:23.084Z,3.10
2022-07-28T12:33:29.705Z,2.80
2022-07-28T12:37:33.010Z,2.85
2022-07-28T12:41:39.510Z,3.20
2022-07-28T12:45:46.569Z,3.17
2022-07-28T12:50:15.196Z,3.10
2022-07-28T12:54:18.456Z,2.80
2022-07-28T12:58:29.044Z,3.13
2022-07-28T13:02:38.486Z,3.00
2022-07-28T13:06:42.059Z,3.00
2022-07-28T13:10:49.271Z,3.05
2022-07-28T13:14:56.790Z,2.95
2022-07-28T13:19:03.980Z,3.05
2022-07-28T13:23:07.251Z,2.83
2022-07-28T13:27:11.994Z,2.70
2022-07-28T13:31:14.837Z,3.08
2022-07-28T13:35:18.905Z,2.63
2022-07-28T13:39:22.548Z,2.83
2022-07-28T13:43:35.829Z,2.70
2022-07-28T13:47:39.313Z,2.95
2022-07-28T13:51:42.209Z,2.25
2022-07-28T13:55:44.938Z,2.70
2022-07-28T13:59:48.130Z,2.50
2022-07-28T14:03:57.655Z,2.28
2022-07-28T14:08:00.995Z,2.85
2022-07-28T14:12:04.047Z,2.70
2022-07-28T14:16:13.904Z,3.05
2022-07-28T14:20:17.206Z,2.67
2022-07-28T14:24:21.179Z,2.60
2022-07-28T14:28:24.280Z,2.50
2022-07-28T14:32:27.329Z,2.58
2022-07-28T14:36:31.454Z,2.60
2022-07-28T14:40:39.241Z,2.97
2022-07-28T14:44:42.889Z,2.63
2022-07-28T14:48:45.758Z,2.80
2022-07-28T14:52:48.796Z,2.60
2022-07-28T14:56:52.126Z,2.85
2022-07-28T15:00:55.838Z,2.88
2022-07-28T15:04:59.322Z,3.08
2022-07-28T15:09:02.277Z,2.60
2022-07-28T15:13:05.022Z,2.65
2022-07-28T15:17:07.946Z,2.75
2022-07-28T15:21:15.871Z,2.42
2022-07-28T15:25:19.094Z,2.70
2022-07-28T15:29:32.158Z,2.22
2022-07-28T15:33:48.108Z,2.92
2022-07-28T15:38:00.537Z,2.28
2022-07-28T15:42:04.180Z,2.63
2022-07-28T15:46:09.397Z,2.90
2022-07-28T15:54:15.040Z,2.50
2022-07-28T15:58:23.561Z,2.20
2022-07-28T16:07:41.886Z,2.50
2022-07-28T16:11:47.537Z,3.57
2022-07-28T16:15:58.247Z,2.88
2022-07-28T16:20:02.921Z,2.30
2022-07-28T16:24:07.334Z,2.73
2022-07-28T16:28:10.337Z,2.65
2022-07-28T16:32:13.557Z,3.10
2022-07-28T16:36:16.472Z,2.58
2022-07-28T16:40:20.237Z,2.75
2022-07-28T16:44:23.312Z,2.92
2022-07-28T16:48:26.250Z,2.75
2022-07-28T16:52:29.059Z,3.20
2022-07-28T16:56:31.858Z,3.92
2022-07-28T17:00:34.663Z,3.28
2022-07-28T17:04:37.428Z,4.72
2022-07-28T17:08:43.061Z,5.10
2022-07-28T17:12:49.731Z,4.07
2022-07-28T17:16:53.070Z,4.60
2022-07-28T17:20:56.639Z,3.45
2022-07-28T17:25:02.145Z,4.35
2022-07-28T17:29:05.917Z,5.00
2022-07-28T17:33:18.179Z,4.57
2022-07-28T17:37:21.973Z,4.93
2022-07-28T17:41:26.418Z,4.78
2022-07-28T17:45:29.743Z,4.65
2022-07-28T17:49:36.475Z,4.82
2022-07-28T17:53:39.812Z,4.55
2022-07-28T18:02:18.718Z,4.88
2022-07-28T18:06:56.846Z,4.82
2022-07-28T18:16:17.081Z,4.70
2022-07-28T18:24:53.344Z,4.55
2022-07-28T18:29:02.361Z,5.18
2022-07-28T18:33:22.435Z,5.07
2022-07-28T18:47:45.658Z,5.47
2022-07-28T18:51:52.071Z,5.05
2022-07-28T18:55:59.218Z,5.00
2022-07-28T19:00:02.187Z,5.07
2022-07-28T19:04:05.310Z,5.20
2022-07-28T19:08:08.485Z,5.35
2022-07-28T19:12:11.518Z,5.70
2022-07-28T19:16:14.625Z,5.75
2022-07-28T19:20:17.977Z,5.32
2022-07-28T19:24:21.259Z,5.30
2022-07-28T19:28:24.751Z,4.88
2022-07-28T19:32:28.399Z,4.40
2022-07-28T19:36:31.446Z,4.78
2022-07-28T19:40:34.308Z,5.20
2022-07-28T19:44:38.474Z,4.93
2022-07-28T19:48:41.544Z,4.65
2022-07-28T19:52:44.539Z,5.43
2022-07-28T19:56:48.190Z,4.95
2022-07-28T20:00:53.835Z,5.20
2022-07-28T20:05:02.323Z,4.50
2022-07-28T20:09:05.340Z,5.30
2022-07-28T20:13:09.779Z,4.60
2022-07-28T20:17:24.605Z,4.43
2022-07-28T20:21:39.126Z,4.35
2022-07-28T20:25:44.189Z,4.75
2022-07-28T20:29:47.331Z,4.93
2022-07-28T20:33:51.167Z,5.10
2022-07-28T20:37:53.970Z,5.00
2022-07-28T20:41:56.823Z,4.97
2022-07-28T20:46:01.702Z,6.05
2022-07-28T20:50:05.378Z,5.32
2022-07-28T20:54:08.111Z,6.05
2022-07-28T20:58:11.115Z,4.72
2022-07-28T21:02:15.245Z,4.68
2022-07-28T21:10:35.171Z,5.75
2022-07-28T21:14:39.822Z,4.47
2022-07-28T21:18:42.783Z,5.03
2022-07-28T21:22:48.111Z,4.47
2022-07-28T21:26:51.760Z,4.05
2022-07-28T21:30:54.528Z,4.60
2022-07-28T21:34:59.313Z,4.70
2022-07-28T21:39:03.120Z,4.43
2022-07-28T21:43:06.367Z,4.13
2022-07-28T21:47:09.247Z,4.65
2022-07-28T21:51:16.831Z,5.10
2022-07-28T21:55:22.284Z,4.20
2022-07-28T21:59:25.142Z,4.63
2022-07-28T22:03:28.051Z,4.70
2022-07-28T22:07:31.068Z,5.40
2022-07-28T22:11:34.124Z,4.75
2022-07-28T22:15:36.933Z,5.72
2022-07-28T22:19:39.768Z,5.28
2022-07-28T22:23:42.495Z,5.68
2022-07-28T22:27:45.331Z,4.80
2022-07-28T22:31:48.211Z,6.30
2022-07-28T22:35:51.529Z,5.60
2022-07-28T22:39:54.703Z,5.28
2022-07-28T22:43:57.460Z,5.10
2022-07-28T22:48:00.627Z,4.95
2022-07-28T22:52:03.346Z,4.93
2022-07-28T23:00:27.432Z,6.18
2022-07-28T23:04:32.162Z,6.78
2022-07-28T23:08:35.079Z,6.65
2022-07-28T23:12:38.059Z,6.72
2022-07-28T23:16:41.100Z,6.75
2022-07-28T23:20:44.993Z,5.97
2022-07-28T23:24:48.269Z,5.38
2022-07-28T23:28:52.527Z,5.85
2022-07-28T23:32:55.417Z,5.78
2022-07-28T23:36:58.368Z,6.43
2022-07-28T23:41:01.292Z,6.18
2022-07-28T23:45:05.463Z,5.93
2022-07-28T23:49:08.408Z,6.55
2022-07-28T23:53:12.355Z,6.03
